createdAt,value
2023-03-29T00:00:00.929Z,0.0
2023-03-29T00:05:00.601Z,0.0
2023-03-29T00:10:00.734Z,0.0
2023-03-29T00:15:00.647Z,0.0
2023-03-29T00:20:00.648Z,0.0
2023-03-29T00:25:00.710Z,0.0
2023-03-29T00:30:00.690Z,0.0
2023-03-29T00:35:00.653Z,0.0
2023-03-29T00:40:00.704Z,0.0
2023-03-29T00:45:00.716Z,0.0
2023-03-29T00:50:00.628Z,0.0
2023-03-29T00:55:00.608Z,0.0
2023-03-29T01:00:00.719Z,0.0
2023-03-29T01:05:00.621Z,1.8
2023-03-29T01:10:00.677Z,3.2
2023-03-29T01:15:00.673Z,0.0
2023-03-29T01:20:00.644Z,2.9
2023-03-29T01:25:00.620Z,5.0
2023-03-29T01:30:00.686Z,2.5
2023-03-29T01:35:00.675Z,1.4
2023-03-29T01:40:00.670Z,4.0
2023-03-29T01:45:00.596Z,2.5
2023-03-29T01:50:00.674Z,2.5
2023-03-29T01:55:00.596Z,4.0
2023-03-29T02:00:00.717Z,6.5
2023-03-29T02:05:00.650Z,5.8
2023-03-29T02:10:00.668Z,6.5
2023-03-29T02:15:00.652Z,6.5
2023-03-29T02:20:00.763Z,5.0
2023-03-29T02:25:00.644Z,4.7
2023-03-29T02:30:00.659Z,4.3
2023-03-29T02:35:00.620Z,3.6
2023-03-29T02:40:00.698Z,4.0
2023-03-29T02:45:00.662Z,4.3
2023-03-29T02:50:00.708Z,1.4
2023-03-29T02:55:00.809Z,0.0
2023-03-29T03:00:00.654Z,2.5
2023-03-29T03:05:00.610Z,2.9
2023-03-29T03:10:00.657Z,2.2
2023-03-29T03:15:00.673Z,0.0
2023-03-29T03:20:00.740Z,2.5
2023-03-29T03:25:00.602Z,3.2
2023-03-29T03:30:00.634Z,1.8
2023-03-29T03:35:00.609Z,2.2
2023-03-29T03:40:00.685Z,2.5
2023-03-29T03:45:00.599Z,2.5
2023-03-29T03:50:00.648Z,6.1
2023-03-29T03:55:00.655Z,1.4
2023-03-29T04:00:00.670Z,3.6
2023-03-29T04:05:00.694Z,3.2
2023-03-29T04:10:00.652Z,0.0
2023-03-29T04:15:00.599Z,0.0
2023-03-29T04:20:00.687Z,3.2
2023-03-29T04:25:00.646Z,0.0
2023-03-29T04:30:00.893Z,0.0
2023-03-29T04:35:00.696Z,2.9
2023-03-29T04:40:00.661Z,3.6
2023-03-29T04:45:00.877Z,4.3
2023-03-29T04:50:00.670Z,2.9
2023-03-29T04:55:00.608Z,3.6
2023-03-29T05:00:00.655Z,5.8
2023-03-29T05:05:00.694Z,5.4
2023-03-29T05:10:00.623Z,5.4
2023-03-29T05:15:00.589Z,7.2
2023-03-29T05:20:00.669Z,6.1
2023-03-29T05:25:00.594Z,5.0
2023-03-29T05:30:00.675Z,8.6
2023-03-29T05:35:00.640Z,6.8
2023-03-29T05:40:06.655Z,5.0
2023-03-29T05:45:00.694Z,3.2
2023-03-29T05:50:00.707Z,3.2
2023-03-29T05:55:00.709Z,6.1
2023-03-29T06:00:00.722Z,6.1
2023-03-29T06:05:00.824Z,2.5
2023-03-29T06:10:00.734Z,4.0
2023-03-29T06:15:00.639Z,8.6
2023-03-29T06:20:00.648Z,5.8
2023-03-29T06:25:00.657Z,4.3
2023-03-29T06:30:00.643Z,5.0
2023-03-29T06:35:00.611Z,9.0
2023-03-29T06:40:00.642Z,8.6
2023-03-29T06:45:00.605Z,2.5
2023-03-29T06:50:00.729Z,12.2
2023-03-29T06:55:00.687Z,6.5
2023-03-29T07:00:00.744Z,7.9
2023-03-29T07:05:00.601Z,8.3
2023-03-29T07:10:00.774Z,10.4
2023-03-29T07:15:00.699Z,9.4
2023-03-29T07:20:00.685Z,14.8
2023-03-29T07:25:00.635Z,14.8
2023-03-29T07:30:00.906Z,8.3
2023-03-29T07:35:00.626Z,15.8
2023-03-29T07:40:00.662Z,14.4
2023-03-29T07:45:00.830Z,13.3
2023-03-29T07:50:00.617Z,4.7
2023-03-29T07:55:00.607Z,5.8
2023-03-29T08:00:00.708Z,6.1
2023-03-29T08:05:00.782Z,7.2
2023-03-29T08:10:00.762Z,14.4
2023-03-29T08:15:00.595Z,5.8
2023-03-29T08:20:00.758Z,4.7
2023-03-29T08:25:00.686Z,17.3
2023-03-29T08:30:00.679Z,6.1
2023-03-29T08:35:00.606Z,10.1
2023-03-29T08:40:00.650Z,6.1
2023-03-29T08:45:00.651Z,12.2
2023-03-29T08:50:00.707Z,14.8
2023-03-29T08:55:00.843Z,11.9
2023-03-29T09:00:00.672Z,15.8
2023-03-29T09:05:00.720Z,8.3
2023-03-29T09:10:00.708Z,16.6
2023-03-29T09:15:00.859Z,11.5
2023-03-29T09:20:00.650Z,14.0
2023-03-29T09:25:00.642Z,13.0
2023-03-29T09:30:00.680Z,11.5
2023-03-29T09:35:00.633Z,16.6
2023-03-29T09:40:05.390Z,9.7
2023-03-29T09:45:00.624Z,15.8
2023-03-29T09:50:00.711Z,12.2
2023-03-29T09:55:01.369Z,17.6
2023-03-29T10:00:00.652Z,18.4
2023-03-29T10:05:01.165Z,14.4
2023-03-29T10:10:00.639Z,19.1
2023-03-29T10:15:00.877Z,14.8
2023-03-29T10:20:04.856Z,19.1
2023-03-29T10:25:00.696Z,18.0
2023-03-29T10:30:00.668Z,16.6
2023-03-29T10:35:00.798Z,23.0
2023-03-29T10:40:00.628Z,9.4
2023-03-29T10:45:00.716Z,24.5
2023-03-29T10:50:00.635Z,16.6
2023-03-29T10:55:00.805Z,13.3
2023-03-29T11:00:00.713Z,13.3
2023-03-29T11:05:00.609Z,29.5
2023-03-29T11:10:00.677Z,14.4
2023-03-29T11:15:00.663Z,20.2
2023-03-29T11:20:05.445Z,8.6
2023-03-29T11:25:00.607Z,11.9
2023-03-29T11:30:00.695Z,19.4
2023-03-29T11:35:00.679Z,12.2
2023-03-29T11:40:00.813Z,17.3
2023-03-29T11:45:00.642Z,13.0
2023-03-29T11:50:00.744Z,16.2
2023-03-29T11:55:00.642Z,21.6
2023-03-29T12:00:00.655Z,9.4
2023-03-29T12:05:00.632Z,7.2
2023-03-29T12:10:00.922Z,14.4
2023-03-29T12:15:00.692Z,22.0
2023-03-29T12:20:00.699Z,20.5
2023-03-29T12:25:00.616Z,12.6
2023-03-29T12:30:00.697Z,18.4
2023-03-29T12:35:01.366Z,22.3
2023-03-29T12:40:00.663Z,18.7
2023-03-29T12:45:00.615Z,10.1
2023-03-29T12:50:00.675Z,14.8
2023-03-29T12:55:00.648Z,14.8
2023-03-29T13:00:00.644Z,12.2
2023-03-29T13:05:00.753Z,17.6
2023-03-29T13:10:00.652Z,15.8
2023-03-29T13:15:00.748Z,16.9
2023-03-29T13:20:00.657Z,20.5
2023-03-29T13:25:00.665Z,19.4
2023-03-29T13:30:00.620Z,13.3
2023-03-29T13:35:00.642Z,20.9
2023-03-29T13:40:00.668Z,12.2
2023-03-29T13:45:00.730Z,7.6
2023-03-29T13:50:00.676Z,18.4
2023-03-29T13:55:00.619Z,16.6
2023-03-29T14:00:00.732Z,18.4
2023-03-29T14:05:00.636Z,10.4
2023-03-29T14:10:00.673Z,13.0
2023-03-29T14:15:00.751Z,13.3
2023-03-29T14:20:00.878Z,16.2
2023-03-29T14:25:00.587Z,17.6
2023-03-29T14:30:00.682Z,14.8
2023-03-29T14:35:00.650Z,11.5
2023-03-29T14:40:00.768Z,16.6
2023-03-29T14:45:00.648Z,11.5
2023-03-29T14:50:00.749Z,12.6
2023-03-29T14:55:00.769Z,7.2
2023-03-29T15:00:00.667Z,19.1
2023-03-29T15:05:00.718Z,14.8
2023-03-29T15:10:00.878Z,22.3
2023-03-29T15:15:00.653Z,14.4
2023-03-29T15:20:01.153Z,15.5
2023-03-29T15:25:00.605Z,10.8
2023-03-29T15:30:00.643Z,13.0
2023-03-29T15:35:00.612Z,12.6
2023-03-29T15:40:00.644Z,4.7
2023-03-29T15:45:00.689Z,8.6
2023-03-29T15:50:00.665Z,4.0
2023-03-29T15:55:00.631Z,4.7
2023-03-29T16:00:00.637Z,7.9
2023-03-29T16:05:00.596Z,8.3
2023-03-29T16:10:00.642Z,5.0
2023-03-29T16:15:00.755Z,6.5
2023-03-29T16:20:00.714Z,2.9
2023-03-29T16:25:00.644Z,2.5
2023-03-29T16:30:00.710Z,5.0
2023-03-29T16:35:00.650Z,5.8
2023-03-29T16:40:00.621Z,6.1
2023-03-29T16:45:00.675Z,4.7
2023-03-29T16:50:00.947Z,3.6
2023-03-29T16:55:00.617Z,2.9
2023-03-29T17:00:00.654Z,4.7
2023-03-29T17:05:00.622Z,3.6
2023-03-29T17:10:00.691Z,5.0
2023-03-29T17:15:01.020Z,2.2
2023-03-29T17:20:00.630Z,1.8
2023-03-29T17:25:00.609Z,3.6
2023-03-29T17:30:01.077Z,3.2
2023-03-29T17:35:00.652Z,0.0
2023-03-29T17:40:00.652Z,0.0
2023-03-29T17:45:00.589Z,5.0
2023-03-29T17:50:00.641Z,2.2
2023-03-29T17:55:00.680Z,0.0
2023-03-29T18:00:00.649Z,2.2
2023-03-29T18:05:00.625Z,0.0
2023-03-29T18:10:00.662Z,2.5
2023-03-29T18:15:00.624Z,0.0
2023-03-29T18:20:00.664Z,0.0
2023-03-29T18:25:00.599Z,0.0
2023-03-29T18:30:00.669Z,4.0
2023-03-29T18:35:00.646Z,1.8
2023-03-29T18:40:00.630Z,4.0
2023-03-29T18:45:00.636Z,1.4
2023-03-29T18:50:00.805Z,2.2
2023-03-29T18:55:00.606Z,0.0
2023-03-29T19:00:00.668Z,1.4
2023-03-29T19:05:00.653Z,6.1
2023-03-29T19:10:00.641Z,3.6
2023-03-29T19:15:00.618Z,4.0
2023-03-29T19:20:00.791Z,0.0
2023-03-29T19:25:00.746Z,2.5
2023-03-29T19:30:00.682Z,0.0
2023-03-29T19:35:00.655Z,0.0
2023-03-29T19:40:00.652Z,0.0
2023-03-29T19:45:00.599Z,1.8
2023-03-29T19:50:00.660Z,0.0
2023-03-29T19:55:00.590Z,3.2
2023-03-29T20:00:00.659Z,0.0
2023-03-29T20:05:00.617Z,0.0
2023-03-29T20:10:00.646Z,0.0
2023-03-29T20:15:00.662Z,0.0
2023-03-29T20:20:00.647Z,0.0
2023-03-29T20:25:00.597Z,0.0
2023-03-29T20:30:00.636Z,0.0
2023-03-29T20:35:00.630Z,0.0
2023-03-29T20:40:00.657Z,0.0
2023-03-29T20:45:00.680Z,0.0
2023-03-29T20:50:00.674Z,0.0
2023-03-29T20:55:00.587Z,4.0
2023-03-29T21:00:00.672Z,2.5
2023-03-29T21:05:00.629Z,1.8
2023-03-29T21:10:00.633Z,0.0
2023-03-29T21:15:00.653Z,0.0
2023-03-29T21:20:00.710Z,5.0
2023-03-29T21:25:00.670Z,0.0
2023-03-29T21:30:00.669Z,4.7
2023-03-29T21:35:00.674Z,4.7
2023-03-29T21:40:00.791Z,3.2
2023-03-29T21:45:00.677Z,0.0
2023-03-29T21:50:00.693Z,0.0
2023-03-29T21:55:00.664Z,1.4
2023-03-29T22:00:00.714Z,0.0
2023-03-29T22:05:00.627Z,1.8
2023-03-29T22:10:00.660Z,2.2
2023-03-29T22:15:00.628Z,0.0
2023-03-29T22:20:00.654Z,1.8
2023-03-29T22:25:00.694Z,0.0
2023-03-29T22:30:00.631Z,0.0
2023-03-29T22:35:00.696Z,0.0
2023-03-29T22:40:00.681Z,0.0
2023-03-29T22:45:00.589Z,0.0
2023-03-29T22:50:00.651Z,0.0
2023-03-29T22:55:00.602Z,5.8
2023-03-29T23:00:00.651Z,2.5
2023-03-29T23:05:00.668Z,3.2
2023-03-29T23:10:00.653Z,2.2
2023-03-29T23:15:00.765Z,1.8
2023-03-29T23:20:00.864Z,3.6
2023-03-29T23:25:00.672Z,4.0
2023-03-29T23:30:00.660Z,1.8
2023-03-29T23:35:00.719Z,0.0
2023-03-29T23:40:00.707Z,2.2
2023-03-29T23:45:00.725Z,0.0
2023-03-29T23:50:00.721Z,0.0
2023-03-29T23:55:00.936Z,0.0
